Time;durP1;ratioP1;P1;durP2;ratioP2;P2;SDS_P1;SDS_P2;PMS_P1;PMS_P2;Temp;Humidity;BMP_temperature;BMP_pressure;BME280_temperature;BME280_humidity;BME280_pressure;Samples;Min_cycle;Max_cycle;Signal;HPM_P1;HPM_P2
2022/03/30 00:02:08;;;;;;;35.73;16.50;;;11.80;63.90;;;;;;5011085;28;20516;-74
2022/03/30 00:04:36;;;;;;;33.37;16.40;;;11.90;63.90;;;;;;5011103;28;20478;-76
2022/03/30 00:07:03;;;;;;;35.63;16.67;;;12.00;63.80;;;;;;5004564;28;20451;-76
2022/03/30 00:09:29;;;;;;;30.93;15.03;;;12.00;63.70;;;;;;5015034;28;20511;-74
2022/03/30 00:11:56;;;;;;;33.13;14.87;;;11.90;63.90;;;;;;5020887;28;20506;-75
2022/03/30 00:14:22;;;;;;;25.90;14.53;;;11.80;63.90;;;;;;5015743;28;20198;-76
2022/03/30 00:16:48;;;;;;;32.33;15.13;;;11.80;63.90;;;;;;5014720;28;20445;-73
2022/03/30 00:19:14;;;;;;;31.50;15.30;;;11.70;64.10;;;;;;5020202;28;20456;-75
2022/03/30 00:21:40;;;;;;;28.70;14.33;;;11.60;64.70;;;;;;5002477;28;20425;-74
2022/03/30 00:24:06;;;;;;;37.43;17.20;;;11.50;65.10;;;;;;5020190;28;20209;-75
2022/03/30 00:26:32;;;;;;;35.53;15.77;;;11.40;65.30;;;;;;5019118;28;20412;-75
2022/03/30 00:28:57;;;;;;;31.70;15.60;;;11.40;65.60;;;;;;5018270;28;20424;-76
2022/03/30 00:31:23;;;;;;;31.40;15.73;;;11.40;65.60;;;;;;4999224;28;20214;-76
2022/03/30 00:33:51;;;;;;;36.73;16.00;;;11.40;65.40;;;;;;5003534;28;20440;-76
2022/03/30 00:36:17;;;;;;;43.63;17.03;;;11.50;65.10;;;;;;5003855;28;20648;-74
2022/03/30 00:38:43;;;;;;;32.67;15.20;;;11.50;65.10;;;;;;5021288;28;20425;-77
2022/03/30 00:41:09;;;;;;;36.17;15.47;;;11.60;65.10;;;;;;5021340;28;20481;-75
2022/03/30 00:43:35;;;;;;;31.13;15.60;;;11.70;65.00;;;;;;5021854;28;20202;-75
2022/03/30 00:46:00;;;;;;;29.97;14.93;;;11.70;65.10;;;;;;5021862;28;20420;-76
2022/03/30 00:48:26;;;;;;;34.07;17.10;;;11.80;65.00;;;;;;5021769;28;20425;-75
2022/03/30 00:50:52;;;;;;;30.57;15.00;;;11.90;64.80;;;;;;5018632;28;20573;-75
2022/03/30 00:53:18;;;;;;;38.47;15.97;;;12.00;64.50;;;;;;5017634;28;20205;-76
2022/03/30 00:55:44;;;;;;;28.13;15.00;;;12.00;64.20;;;;;;5016298;28;20417;-73
2022/03/30 00:58:10;;;;;;;30.10;14.70;;;11.80;64.50;;;;;;5013863;28;20190;-75
2022/03/30 01:00:35;;;;;;;28.73;15.50;;;11.70;65.30;;;;;;5013433;28;20453;-75
2022/03/30 01:03:01;;;;;;;29.87;14.90;;;11.70;65.40;;;;;;5014063;28;20233;-76
2022/03/30 01:05:27;;;;;;;35.30;15.40;;;11.70;65.60;;;;;;5013739;28;20423;-75
2022/03/30 01:07:57;;;;;;;32.93;14.33;;;11.70;65.70;;;;;;5013685;28;20208;-74
2022/03/30 01:10:24;;;;;;;29.80;14.80;;;11.70;65.70;;;;;;5012603;28;20219;-75
2022/03/30 01:12:52;;;;;;;39.20;16.70;;;11.80;65.40;;;;;;5013787;28;20448;-77
2022/03/30 01:15:19;;;;;;;33.90;15.87;;;11.90;65.40;;;;;;5013698;28;20463;-76
2022/03/30 01:17:45;;;;;;;34.50;16.50;;;11.90;65.30;;;;;;4996393;28;20429;-76
2022/03/30 01:20:15;;;;;;;30.20;15.63;;;11.90;65.60;;;;;;5013850;28;20540;-75
2022/03/30 01:22:41;;;;;;;33.97;15.57;;;11.90;65.80;;;;;;5017863;28;20499;-76
2022/03/30 01:25:07;;;;;;;28.20;14.77;;;11.90;66.30;;;;;;5015826;28;20456;-75
2022/03/30 01:27:33;;;;;;;29.07;14.57;;;11.90;66.40;;;;;;5013822;28;20182;-77
2022/03/30 01:32:53;;;;;;;31.80;14.77;;;12.00;67.30;;;;;;5013899;28;20223;-75
2022/03/30 01:35:19;;;;;;;34.87;15.90;;;12.00;67.20;;;;;;5013795;28;20516;-76
2022/03/30 01:37:45;;;;;;;41.33;15.90;;;12.10;66.90;;;;;;5013772;28;20508;-76
2022/03/30 01:40:11;;;;;;;30.00;15.77;;;12.10;66.60;;;;;;5013505;28;20198;-74
2022/03/30 01:42:37;;;;;;;29.27;15.30;;;12.10;66.40;;;;;;5014966;28;20209;-76
2022/03/30 01:45:04;;;;;;;32.60;16.47;;;12.10;65.80;;;;;;5013762;28;20497;-75
2022/03/30 01:47:30;;;;;;;32.80;16.83;;;11.90;66.30;;;;;;5013914;28;20186;-75
2022/03/30 01:49:56;;;;;;;34.77;16.30;;;11.90;66.40;;;;;;5016308;28;20471;-76
2022/03/30 01:52:22;;;;;;;37.53;16.77;;;11.80;66.40;;;;;;5011171;28;20452;-73
2022/03/30 01:54:49;;;;;;;36.10;16.20;;;11.80;66.40;;;;;;5001152;28;20429;-76
2022/03/30 01:57:15;;;;;;;35.20;16.27;;;11.90;66.40;;;;;;5001282;28;20860;-74
2022/03/30 01:59:43;;;;;;;39.33;17.00;;;11.90;66.30;;;;;;5017600;28;20479;-74
2022/03/30 02:02:10;;;;;;;33.57;16.73;;;11.90;66.00;;;;;;5007535;28;20277;-75
2022/03/30 02:04:36;;;;;;;31.87;16.40;;;11.70;66.00;;;;;;5015132;28;20429;-75
2022/03/30 02:07:03;;;;;;;32.73;16.70;;;11.60;66.40;;;;;;5012650;28;20427;-76
2022/03/30 02:09:29;;;;;;;30.60;15.73;;;11.60;66.70;;;;;;4995615;28;21026;-77
2022/03/30 02:11:55;;;;;;;31.63;16.33;;;11.60;66.60;;;;;;5012665;28;20428;-74
2022/03/30 02:14:21;;;;;;;31.47;16.00;;;11.70;66.40;;;;;;5012686;28;20198;-77
2022/03/30 02:16:47;;;;;;;28.37;14.70;;;11.80;66.30;;;;;;5009079;28;20195;-76
2022/03/30 02:19:13;;;;;;;38.23;16.43;;;11.80;66.40;;;;;;5010956;28;20439;-75
2022/03/30 02:21:39;;;;;;;41.83;16.90;;;11.90;66.40;;;;;;5004880;28;20441;-77
2022/03/30 02:24:05;;;;;;;38.63;17.40;;;12.00;66.10;;;;;;5008576;28;20252;-78
2022/03/30 02:26:30;;;;;;;35.50;15.30;;;11.90;67.00;;;;;;5004784;28;20505;-74
2022/03/30 02:28:56;;;;;;;31.60;15.53;;;11.90;67.30;;;;;;5009261;28;20432;-76
2022/03/30 02:31:22;;;;;;;27.00;15.13;;;11.90;67.20;;;;;;5012234;28;20507;-76
2022/03/30 02:33:49;;;;;;;29.43;16.30;;;11.90;67.20;;;;;;5014358;28;20216;-76
2022/03/30 02:36:15;;;;;;;32.90;16.00;;;11.80;67.50;;;;;;5014100;28;20421;-76
2022/03/30 02:38:42;;;;;;;30.00;15.50;;;11.90;67.50;;;;;;4996716;28;20433;-75
2022/03/30 02:41:09;;;;;;;34.80;15.80;;;11.90;67.70;;;;;;5013354;28;20460;-75
2022/03/30 02:43:35;;;;;;;38.90;15.47;;;12.00;68.20;;;;;;5013810;28;20540;-76
2022/03/30 02:46:02;;;;;;;29.70;16.70;;;12.00;68.00;;;;;;5014297;28;20431;-75
2022/03/30 02:48:32;;;;;;;35.43;15.67;;;12.00;67.90;;;;;;5015622;28;20456;-76
2022/03/30 02:51:02;;;;;;;29.50;15.87;;;12.00;67.20;;;;;;5014957;28;20539;-73
2022/03/30 02:53:28;;;;;;;33.20;16.10;;;12.00;67.50;;;;;;4996538;28;20441;-76
2022/03/30 02:55:54;;;;;;;26.47;14.50;;;12.00;67.70;;;;;;5016983;28;20468;-75
2022/03/30 02:58:20;;;;;;;30.20;15.17;;;12.00;67.90;;;;;;5007895;28;20182;-76
2022/03/30 03:00:46;;;;;;;33.40;14.87;;;12.00;67.90;;;;;;5025208;28;20436;-76
2022/03/30 03:03:12;;;;;;;25.70;14.83;;;11.90;67.70;;;;;;5022400;28;20453;-75
2022/03/30 03:05:39;;;;;;;32.17;16.10;;;11.90;67.90;;;;;;5020639;28;20435;-76
2022/03/30 03:08:06;;;;;;;30.47;15.77;;;12.00;67.90;;;;;;5016980;28;20194;-76
2022/03/30 03:10:35;;;;;;;29.73;14.30;;;12.00;68.00;;;;;;5012779;28;20993;-75
2022/03/30 03:13:04;;;;;;;30.63;15.10;;;12.00;67.70;;;;;;5012697;28;20528;-77
2022/03/30 03:15:31;;;;;;;28.43;15.30;;;12.00;67.60;;;;;;4994332;28;20441;-76
2022/03/30 03:17:57;;;;;;;31.97;14.87;;;11.80;68.20;;;;;;5012110;28;20498;-76
2022/03/30 03:20:24;;;;;;;28.23;15.40;;;11.80;68.30;;;;;;5010289;28;20505;-75
2022/03/30 03:22:49;;;;;;;33.33;16.17;;;11.80;68.30;;;;;;5012049;28;20448;-76
2022/03/30 03:25:15;;;;;;;30.17;15.60;;;11.80;68.30;;;;;;5011108;28;20479;-77
2022/03/30 03:27:41;;;;;;;33.77;16.43;;;11.80;68.30;;;;;;5004562;28;20527;-75
2022/03/30 03:30:08;;;;;;;29.03;15.37;;;11.70;68.50;;;;;;5008891;28;20228;-76
2022/03/30 03:32:33;;;;;;;35.30;16.30;;;11.70;68.80;;;;;;5004696;28;20201;-77
2022/03/30 03:34:59;;;;;;;33.70;16.93;;;11.80;68.60;;;;;;5012942;28;20499;-74
2022/03/30 03:37:25;;;;;;;36.77;15.70;;;11.80;67.90;;;;;;5001704;28;20425;-76
2022/03/30 03:39:51;;;;;;;35.17;16.17;;;11.70;68.20;;;;;;5008102;28;20525;-76
2022/03/30 03:42:17;;;;;;;32.47;16.67;;;11.60;68.30;;;;;;5020397;28;20241;-75
2022/03/30 03:44:43;;;;;;;32.77;14.67;;;11.60;68.30;;;;;;5000673;28;20190;-75
2022/03/30 03:47:09;;;;;;;28.20;15.50;;;11.60;68.50;;;;;;5020882;28;20432;-76
2022/03/30 03:49:37;;;;;;;34.60;17.77;;;11.60;68.30;;;;;;5015946;28;20425;-76
2022/03/30 03:52:05;;;;;;;28.17;15.67;;;11.50;68.30;;;;;;5008262;28;20479;-74
2022/03/30 03:54:31;;;;;;;30.73;15.30;;;11.50;68.20;;;;;;5005617;28;20552;-75
2022/03/30 03:56:57;;;;;;;40.10;17.07;;;11.50;68.20;;;;;;5006971;28;20444;-77
2022/03/30 03:59:23;;;;;;;37.90;17.00;;;11.60;68.00;;;;;;5013583;28;20915;-76
2022/03/30 04:01:49;;;;;;;35.17;15.50;;;11.70;67.90;;;;;;5004032;28;20178;-76
2022/03/30 04:04:16;;;;;;;33.30;16.20;;;11.60;67.70;;;;;;5015156;28;20444;-76
2022/03/30 04:06:42;;;;;;;30.53;16.20;;;11.70;68.00;;;;;;5013888;28;20417;-75
2022/03/30 04:09:07;;;;;;;35.23;16.87;;;11.60;68.00;;;;;;5017029;28;20531;-77
2022/03/30 04:11:33;;;;;;;34.00;16.23;;;11.60;68.30;;;;;;5017670;28;20228;-75
2022/03/30 04:13:59;;;;;;;35.10;15.13;;;11.70;68.00;;;;;;5019632;28;20236;-75
2022/03/30 04:16:25;;;;;;;39.57;15.83;;;11.80;68.30;;;;;;5018379;28;20285;-77
2022/03/30 04:18:50;;;;;;;34.70;16.37;;;11.80;68.20;;;;;;5019067;28;20182;-76
2022/03/30 04:21:16;;;;;;;33.47;15.97;;;11.90;67.90;;;;;;4999803;28;20221;-75
2022/03/30 04:23:42;;;;;;;39.00;15.53;;;11.90;67.70;;;;;;4997236;28;20212;-75
2022/03/30 04:26:11;;;;;;;36.07;16.70;;;11.80;68.20;;;;;;5014439;28;20261;-76
2022/03/30 04:28:40;;;;;;;36.10;15.97;;;11.80;68.20;;;;;;5019507;28;20197;-76
2022/03/30 04:31:10;;;;;;;31.20;15.67;;;11.80;68.50;;;;;;5021885;28;20472;-76
2022/03/30 04:33:37;;;;;;;32.87;16.63;;;11.80;68.30;;;;;;5015246;28;20998;-77
2022/03/30 04:36:03;;;;;;;29.83;15.37;;;11.80;68.50;;;;;;5014444;28;20425;-75
2022/03/30 04:38:29;;;;;;;32.50;15.00;;;11.90;68.60;;;;;;5014885;28;20474;-77
2022/03/30 04:40:55;;;;;;;34.77;15.30;;;11.80;69.20;;;;;;5013224;28;20424;-76
2022/03/30 04:43:21;;;;;;;40.80;15.20;;;11.80;70.20;;;;;;5014559;28;20873;-75
2022/03/30 04:45:46;;;;;;;33.70;14.57;;;11.70;71.40;;;;;;5014391;28;20221;-75
2022/03/30 04:48:12;;;;;;;33.10;14.87;;;11.60;72.90;;;;;;5014255;28;20197;-76
2022/03/30 04:50:38;;;;;;;33.87;13.53;;;11.50;74.20;;;;;;5014308;28;20348;-75
2022/03/30 04:53:04;;;;;;;32.00;14.70;;;11.40;75.80;;;;;;5005782;28;20234;-76
2022/03/30 04:55:29;;;;;;;32.67;14.40;;;11.20;77.30;;;;;;4989531;28;20213;-76
2022/03/30 04:57:55;;;;;;;29.00;14.23;;;11.00;79.00;;;;;;5007884;28;20262;-77
2022/03/30 05:00:21;;;;;;;34.83;13.83;;;10.90;80.50;;;;;;5009967;28;20205;-75
2022/03/30 05:02:47;;;;;;;32.40;13.20;;;10.80;81.70;;;;;;5008744;28;20201;-77
2022/03/30 05:05:13;;;;;;;34.97;13.90;;;10.70;82.50;;;;;;4999080;28;20236;-76
2022/03/30 05:07:39;;;;;;;34.00;13.73;;;10.60;83.30;;;;;;5014474;28;20260;-75
2022/03/30 05:10:08;;;;;;;35.10;14.07;;;10.50;84.40;;;;;;5013838;28;20201;-75
2022/03/30 05:12:34;;;;;;;33.57;14.33;;;10.40;85.30;;;;;;5004320;28;20448;-75
2022/03/30 05:15:00;;;;;;;38.83;15.63;;;10.30;86.50;;;;;;5006270;28;20416;-77
2022/03/30 05:17:25;;;;;;;35.00;14.77;;;10.20;87.60;;;;;;5014117;28;20221;-75
2022/03/30 05:19:51;;;;;;;35.70;15.43;;;10.10;88.70;;;;;;5011219;28;20209;-75
2022/03/30 05:22:17;;;;;;;37.10;15.30;;;10.00;89.30;;;;;;5008927;28;20269;-76
2022/03/30 05:24:43;;;;;;;36.87;15.03;;;10.00;90.10;;;;;;5014740;28;20186;-74
2022/03/30 05:27:09;;;;;;;41.43;14.80;;;10.00;90.60;;;;;;5015429;28;20421;-75
2022/03/30 05:29:36;;;;;;;39.23;15.20;;;9.90;91.00;;;;;;5018348;28;20238;-73
2022/03/30 05:32:02;;;;;;;37.17;15.80;;;9.80;91.10;;;;;;5006710;28;20446;-74
2022/03/30 05:34:28;;;;;;;32.27;15.17;;;9.70;91.50;;;;;;5010782;28;20445;-76
2022/03/30 05:36:54;;;;;;;38.80;15.63;;;9.70;91.90;;;;;;5011506;28;20421;-75
2022/03/30 05:39:19;;;;;;;38.50;14.90;;;9.60;92.20;;;;;;5015007;28;20178;-74
2022/03/30 05:41:45;;;;;;;38.90;15.87;;;9.60;92.50;;;;;;5019776;28;20217;-74
2022/03/30 05:44:11;;;;;;;41.00;18.30;;;9.60;92.70;;;;;;5018052;28;20213;-73
2022/03/30 05:46:37;;;;;;;33.37;14.67;;;9.50;93.00;;;;;;5014820;28;20239;-73
2022/03/30 05:49:04;;;;;;;31.50;15.50;;;9.60;93.20;;;;;;4998153;28;20242;-79
2022/03/30 05:51:30;;;;;;;38.83;16.90;;;9.60;93.30;;;;;;5023521;28;20532;-78
2022/03/30 05:53:56;;;;;;;35.30;15.20;;;9.60;93.50;;;;;;5018329;28;20471;-76
2022/03/30 05:57:00;;;;;;;42.43;16.70;;;9.60;93.70;;;;;;5023270;28;20424;-78
2022/03/30 05:59:07;;;;;;;46.57;17.47;;;9.70;93.60;;;;;;5010654;28;20639;-78
2022/03/30 06:01:34;;;;;;;35.30;16.80;;;9.60;93.40;;;;;;5001532;28;20456;-78
2022/03/30 06:04:00;;;;;;;34.10;15.10;;;9.70;93.60;;;;;;5013339;28;20571;-78
2022/03/30 06:06:25;;;;;;;37.93;17.27;;;9.70;93.50;;;;;;5016665;28;20472;-76
2022/03/30 06:08:51;;;;;;;36.37;17.10;;;9.70;93.30;;;;;;4994605;28;20790;-78
2022/03/30 06:11:17;;;;;;;44.93;17.20;;;9.70;93.40;;;;;;5008209;28;20718;-77
2022/03/30 06:13:42;;;;;;;40.20;15.40;;;9.70;93.30;;;;;;5012059;28;20217;-79
2022/03/30 06:16:09;;;;;;;32.70;15.00;;;9.70;93.30;;;;;;5011935;28;20206;-79
2022/03/30 06:18:34;;;;;;;37.50;16.57;;;9.70;93.50;;;;;;5004205;28;20178;-79
2022/03/30 06:21:00;;;;;;;39.43;16.87;;;9.80;93.40;;;;;;4992011;28;20557;-76
2022/03/30 06:23:26;;;;;;;43.10;15.23;;;9.80;93.40;;;;;;5002859;28;20473;-78
2022/03/30 06:25:53;;;;;;;36.40;14.53;;;9.90;93.30;;;;;;5007360;28;20183;-78
2022/03/30 06:28:23;;;;;;;35.30;15.10;;;10.00;93.10;;;;;;5006385;28;20272;-80
2022/03/30 06:30:49;;;;;;;34.77;15.73;;;10.10;92.80;;;;;;5001490;28;20469;-77
2022/03/30 06:33:14;;;;;;;31.83;14.43;;;10.10;92.70;;;;;;4993814;28;20524;-78
2022/03/30 06:35:40;;;;;;;32.30;13.30;;;10.10;92.30;;;;;;5008637;28;20416;-76
2022/03/30 06:38:07;;;;;;;32.90;13.93;;;10.10;92.40;;;;;;4997498;28;20297;-78
2022/03/30 06:40:33;;;;;;;38.90;14.70;;;10.20;92.50;;;;;;4991463;28;20524;-78
2022/03/30 06:43:00;;;;;;;32.83;15.83;;;10.20;92.60;;;;;;4987263;28;20482;-77
2022/03/30 06:45:27;;;;;;;31.07;14.40;;;10.20;92.60;;;;;;5014630;28;20432;-78
2022/03/30 06:47:53;;;;;;;45.83;14.70;;;10.30;92.80;;;;;;5008823;28;20901;-76
2022/03/30 06:50:19;;;;;;;28.80;14.60;;;10.20;92.70;;;;;;5012030;28;20479;-78
2022/03/30 06:52:46;;;;;;;35.87;14.20;;;10.20;92.70;;;;;;5012017;28;20437;-78
2022/03/30 06:55:14;;;;;;;32.43;15.10;;;10.20;92.40;;;;;;5008201;28;20465;-77
2022/03/30 06:57:41;;;;;;;53.43;18.00;;;10.30;92.70;;;;;;5018210;28;20417;-77
2022/03/30 07:00:07;;;;;;;35.23;14.30;;;10.30;92.80;;;;;;5023318;28;20761;-78
2022/03/30 07:02:33;;;;;;;40.10;15.07;;;10.40;92.90;;;;;;5020601;28;20453;-77
2022/03/30 07:04:59;;;;;;;36.07;14.07;;;10.50;93.20;;;;;;5018784;28;20421;-76
2022/03/30 07:10:15;;;;;;;35.27;14.70;;;10.60;93.00;;;;;;5019173;28;20514;-77
2022/03/30 07:12:41;;;;;;;33.27;14.93;;;10.60;92.60;;;;;;5017829;28;20437;-76
2022/03/30 07:15:07;;;;;;;29.90;14.53;;;10.60;92.50;;;;;;4997738;28;20437;-77
2022/03/30 07:17:33;;;;;;;34.00;14.70;;;10.60;92.60;;;;;;5018420;28;20500;-78
2022/03/30 07:19:59;;;;;;;33.03;14.80;;;10.70;92.70;;;;;;5011282;28;20436;-79
2022/03/30 07:22:25;;;;;;;39.37;15.40;;;10.80;92.50;;;;;;5015448;28;20432;-76
2022/03/30 07:24:51;;;;;;;39.20;14.47;;;10.70;92.30;;;;;;5014901;28;20417;-79
2022/03/30 07:27:17;;;;;;;30.20;15.37;;;10.70;92.10;;;;;;5012851;28;20482;-77
2022/03/30 07:29:42;;;;;;;34.20;16.00;;;10.80;92.00;;;;;;5012932;28;20178;-76
2022/03/30 07:32:08;;;;;;;42.20;17.40;;;10.80;91.90;;;;;;5013084;28;20189;-75
2022/03/30 07:34:36;;;;;;;35.40;15.90;;;10.80;92.10;;;;;;5012408;28;20194;-77
2022/03/30 07:37:03;;;;;;;48.00;19.70;;;10.90;92.10;;;;;;5012410;28;20420;-77
2022/03/30 07:39:29;;;;;;;35.70;15.93;;;10.90;92.10;;;;;;5012579;28;20416;-77
2022/03/30 07:41:55;;;;;;;30.97;14.37;;;10.90;91.80;;;;;;5012074;28;20436;-78
2022/03/30 07:44:21;;;;;;;33.00;15.23;;;11.00;91.40;;;;;;5012546;28;20523;-76
2022/03/30 07:46:48;;;;;;;29.37;14.70;;;11.00;91.00;;;;;;5013210;28;20229;-78
2022/03/30 07:49:20;;;;;;;38.70;16.27;;;11.00;91.00;;;;;;5013033;28;20202;-78
2022/03/30 07:51:46;;;;;;;34.13;15.00;;;11.00;90.90;;;;;;4995384;28;20518;-76
2022/03/30 07:54:11;;;;;;;41.43;17.77;;;10.80;90.60;;;;;;5011377;28;20449;-78
2022/03/30 07:56:38;;;;;;;32.00;15.00;;;10.80;90.50;;;;;;4995905;28;20213;-76
2022/03/30 07:59:04;;;;;;;37.53;14.93;;;10.90;90.40;;;;;;5013820;28;20189;-75
2022/03/30 08:01:30;;;;;;;39.13;16.27;;;10.90;90.00;;;;;;5013825;28;20416;-77
2022/03/30 08:03:56;;;;;;;34.20;13.57;;;10.80;89.90;;;;;;5012413;28;20963;-77
2022/03/30 08:06:22;;;;;;;33.17;15.40;;;10.90;89.90;;;;;;5013233;28;20261;-76
2022/03/30 08:08:48;;;;;;;37.63;15.50;;;10.80;89.20;;;;;;5012945;28;20420;-79
2022/03/30 08:11:14;;;;;;;28.53;14.33;;;10.70;89.60;;;;;;5012342;28;20480;-76
2022/03/30 08:13:40;;;;;;;35.10;15.17;;;10.70;90.00;;;;;;5012809;28;20198;-77
2022/03/30 08:16:06;;;;;;;37.23;14.53;;;10.80;90.20;;;;;;5012726;28;20201;-76
2022/03/30 08:18:31;;;;;;;35.10;14.53;;;10.80;89.90;;;;;;5013536;28;20189;-76
2022/03/30 08:23:42;;;;;;;32.33;14.73;;;10.90;90.30;;;;;;5014193;28;20292;-76
2022/03/30 08:26:07;;;;;;;36.00;16.43;;;10.90;89.70;;;;;;5015041;28;20983;-76
2022/03/30 08:28:33;;;;;;;31.43;15.53;;;11.00;90.10;;;;;;5015592;28;20257;-76
2022/03/30 08:30:59;;;;;;;31.10;15.23;;;11.00;90.20;;;;;;5012510;28;20201;-76
2022/03/30 08:33:26;;;;;;;32.40;13.07;;;11.00;90.10;;;;;;5011372;28;20198;-76
2022/03/30 08:35:55;;;;;;;35.80;15.67;;;11.00;90.10;;;;;;5007801;28;20261;-75
2022/03/30 08:38:22;;;;;;;36.00;15.50;;;11.10;90.10;;;;;;5003485;28;20415;-75
2022/03/30 08:40:48;;;;;;;32.60;11.70;;;11.10;90.10;;;;;;5005283;28;20467;-77
2022/03/30 08:43:14;;;;;;;38.20;13.07;;;11.10;89.30;;;;;;5004797;28;20441;-76
2022/03/30 08:45:41;;;;;;;34.13;14.10;;;11.10;88.40;;;;;;5003047;28;20942;-76
2022/03/30 08:48:07;;;;;;;29.23;12.77;;;11.10;88.40;;;;;;5009295;28;20992;-76
2022/03/30 08:50:34;;;;;;;27.07;11.77;;;11.20;88.60;;;;;;5008429;28;20467;-76
2022/03/30 08:53:04;;;;;;;27.23;11.83;;;11.20;88.40;;;;;;5006223;28;20476;-77
2022/03/30 08:55:31;;;;;;;35.93;14.53;;;11.10;88.40;;;;;;5012662;28;20424;-75
2022/03/30 08:57:57;;;;;;;33.10;13.83;;;11.10;89.00;;;;;;5007564;28;21261;-76
2022/03/30 09:00:23;;;;;;;38.50;14.00;;;11.00;89.30;;;;;;5012025;28;20440;-78
2022/03/30 09:03:00;;;;;;;32.63;13.77;;;10.90;89.90;;;;;;5015747;28;21073;-77
2022/03/30 09:05:28;;;;;;;34.47;13.47;;;10.80;90.30;;;;;;5016285;28;20420;-77
2022/03/30 09:08:14;;;;;;;25.83;12.50;;;10.80;90.50;;;;;;5010035;28;20838;-76
2022/03/30 09:10:46;;;;;;;31.93;13.10;;;10.90;90.30;;;;;;5016079;28;21009;-79
2022/03/30 09:13:14;;;;;;;32.40;12.40;;;11.00;90.10;;;;;;5003400;28;20472;-77
2022/03/30 09:15:40;;;;;;;37.50;12.80;;;11.10;90.20;;;;;;5017808;28;20948;-78
2022/03/30 09:18:09;;;;;;;27.23;12.90;;;11.10;89.90;;;;;;4996412;28;20595;-77
2022/03/30 09:20:40;;;;;;;30.37;12.87;;;11.00;89.50;;;;;;5009361;28;20488;-78
2022/03/30 09:23:08;;;;;;;32.77;12.10;;;10.90;89.50;;;;;;5013214;28;20471;-77
2022/03/30 09:25:34;;;;;;;26.40;12.50;;;10.80;90.00;;;;;;5014806;28;20907;-78
2022/03/30 09:28:01;;;;;;;32.13;11.80;;;10.90;90.10;;;;;;5014963;28;20428;-77
2022/03/30 09:30:28;;;;;;;27.67;11.87;;;11.00;89.90;;;;;;5014574;28;20978;-76
2022/03/30 09:32:57;;;;;;;28.47;13.33;;;11.00;89.90;;;;;;5007571;28;20524;-77
2022/03/30 09:35:34;;;;;;;27.03;11.87;;;11.10;89.60;;;;;;5014569;28;20863;-77
2022/03/30 09:38:08;;;;;;;28.17;11.10;;;11.00;89.00;;;;;;5006331;28;20425;-77
2022/03/30 09:40:42;;;;;;;25.33;12.50;;;11.00;89.20;;;;;;5014252;28;20869;-78
2022/03/30 09:43:27;;;;;;;29.23;12.67;;;10.90;89.20;;;;;;5014072;28;20693;-76
2022/03/30 09:46:02;;;;;;;33.37;13.17;;;10.80;90.00;;;;;;4997247;28;20437;-78
2022/03/30 09:48:29;;;;;;;29.90;12.10;;;10.80;90.10;;;;;;5014130;28;20424;-77
2022/03/30 09:50:56;;;;;;;28.90;12.27;;;10.90;89.90;;;;;;5013893;28;20519;-78
2022/03/30 09:53:25;;;;;;;24.27;11.30;;;10.90;90.00;;;;;;5014235;28;20492;-78
2022/03/30 09:55:58;;;;;;;27.40;12.13;;;10.90;90.00;;;;;;5014410;28;20504;-76
2022/03/30 09:58:26;;;;;;;28.20;12.90;;;10.90;90.20;;;;;;4997471;28;20428;-78
2022/03/30 10:01:10;;;;;;;38.40;13.50;;;11.00;90.40;;;;;;4995146;28;20496;-77
2022/03/30 10:03:55;;;;;;;32.77;12.97;;;11.00;90.50;;;;;;5008539;28;20491;-78
2022/03/30 10:06:26;;;;;;;31.07;12.83;;;11.10;90.50;;;;;;5012988;28;20460;-76
2022/03/30 10:08:52;;;;;;;28.43;13.60;;;11.20;90.30;;;;;;5018099;28;20449;-78
2022/03/30 10:11:20;;;;;;;32.17;11.50;;;11.20;90.10;;;;;;5010854;28;20472;-78
2022/03/30 10:13:51;;;;;;;28.83;12.23;;;11.30;89.70;;;;;;5018347;28;20441;-76
2022/03/30 10:16:20;;;;;;;26.73;11.73;;;11.30;89.30;;;;;;5016406;28;20811;-76
2022/03/30 10:18:47;;;;;;;31.80;11.93;;;11.40;89.30;;;;;;4999172;28;20429;-78
2022/03/30 10:21:22;;;;;;;35.40;13.70;;;11.50;89.00;;;;;;5014020;28;20437;-77
2022/03/30 10:24:21;;;;;;;36.03;12.27;;;11.60;88.40;;;;;;5014542;28;20452;-78
2022/03/30 10:27:26;;;;;;;27.30;12.20;;;11.80;87.70;;;;;;5015039;28;20413;-78
2022/03/30 10:29:54;;;;;;;30.80;12.77;;;12.00;86.50;;;;;;5017126;28;20427;-77
2022/03/30 10:32:25;;;;;;;33.00;13.00;;;12.10;86.50;;;;;;4997219;28;20479;-78
2022/03/30 10:34:53;;;;;;;27.80;11.80;;;12.20;86.20;;;;;;5015068;28;20974;-79
2022/03/30 10:37:25;;;;;;;38.37;13.50;;;12.30;85.90;;;;;;5014327;28;20916;-80
2022/03/30 10:40:18;;;;;;;26.97;12.83;;;12.60;85.50;;;;;;4989844;28;20460;-78
2022/03/30 10:42:47;;;;;;;31.73;14.40;;;13.00;84.60;;;;;;5003658;28;20464;-79
2022/03/30 10:45:26;;;;;;;27.37;12.53;;;13.20;81.50;;;;;;5015999;28;20430;-76
2022/03/30 10:48:10;;;;;;;33.93;12.40;;;13.30;81.80;;;;;;5018715;28;20429;-77
2022/03/30 10:50:48;;;;;;;38.67;12.63;;;12.90;81.50;;;;;;5012173;28;20464;-78
2022/03/30 10:53:34;;;;;;;35.77;13.70;;;13.00;82.40;;;;;;5013281;28;20452;-79
2022/03/30 10:56:15;;;;;;;24.80;11.67;;;13.00;82.10;;;;;;5010337;28;20481;-78
2022/03/30 10:58:53;;;;;;;32.33;11.63;;;13.00;82.10;;;;;;5005990;28;20452;-76
2022/03/30 11:01:29;;;;;;;25.37;11.93;;;12.90;82.40;;;;;;5012021;28;20445;-77
2022/03/30 11:04:00;;;;;;;27.27;12.73;;;12.80;83.30;;;;;;5015464;28;20451;-79
2022/03/30 11:06:28;;;;;;;27.73;12.83;;;12.80;83.40;;;;;;5005611;28;20418;-77
2022/03/30 11:08:55;;;;;;;25.80;12.07;;;12.90;83.40;;;;;;4977635;28;20445;-76
2022/03/30 11:11:26;;;;;;;28.60;13.23;;;13.00;83.10;;;;;;5005321;28;20522;-75
2022/03/30 11:14:43;;;;;;;24.80;12.33;;;12.90;83.10;;;;;;5007874;28;20457;-77
2022/03/30 11:17:31;;;;;;;28.60;11.93;;;12.90;83.10;;;;;;4984243;28;20441;-79
2022/03/30 11:19:57;;;;;;;32.00;13.40;;;13.00;83.10;;;;;;5013147;28;20984;-79
2022/03/30 11:22:27;;;;;;;26.47;12.00;;;12.90;83.30;;;;;;5010863;28;20516;-78
2022/03/30 11:25:26;;;;;;;26.73;13.93;;;12.90;83.80;;;;;;5006216;28;20892;-77
2022/03/30 11:28:01;;;;;;;28.97;13.57;;;12.80;84.10;;;;;;4987553;28;20444;-75
2022/03/30 11:30:29;;;;;;;29.97;13.70;;;12.70;84.60;;;;;;5016572;28;20463;-79
2022/03/30 11:33:17;;;;;;;28.90;13.80;;;12.70;85.30;;;;;;5018094;28;20958;-77
2022/03/30 11:35:43;;;;;;;33.97;13.90;;;12.60;85.60;;;;;;5014288;28;20438;-77
2022/03/30 11:38:32;;;;;;;30.67;13.83;;;12.50;86.60;;;;;;5015638;28;20464;-78
2022/03/30 11:41:08;;;;;;;28.83;12.37;;;12.50;87.40;;;;;;5008947;28;20461;-76
2022/03/30 11:46:33;;;;;;;26.33;13.50;;;12.40;88.10;;;;;;4974799;28;20417;-78
2022/03/30 11:49:01;;;;;;;27.07;13.03;;;12.60;88.10;;;;;;5014880;28;20447;-79
2022/03/30 11:51:28;;;;;;;26.33;12.50;;;12.60;86.60;;;;;;5000662;28;21057;-78
2022/03/30 11:54:13;;;;;;;27.83;14.00;;;12.50;85.90;;;;;;5007347;28;20452;-78
2022/03/30 11:56:40;;;;;;;29.80;14.00;;;12.50;86.30;;;;;;5007113;28;20431;-77
2022/03/30 11:59:06;;;;;;;29.97;12.80;;;12.50;86.50;;;;;;5016776;28;20420;-75
2022/03/30 12:01:35;;;;;;;23.20;12.33;;;12.60;86.00;;;;;;5013491;28;20413;-77
2022/03/30 12:04:01;;;;;;;30.40;13.30;;;12.60;85.70;;;;;;5015613;28;20455;-77
2022/03/30 12:06:27;;;;;;;32.53;14.57;;;12.70;84.40;;;;;;4995499;28;20655;-78
2022/03/30 12:08:53;;;;;;;31.90;15.23;;;12.60;84.00;;;;;;5002986;28;20442;-77
2022/03/30 12:11:20;;;;;;;38.73;14.83;;;12.60;83.60;;;;;;5008665;28;20491;-78
2022/03/30 12:13:57;;;;;;;24.60;13.73;;;12.50;84.00;;;;;;5016903;28;20693;-77
2022/03/30 12:16:24;;;;;;;31.37;15.60;;;12.70;84.10;;;;;;5013887;28;20467;-76
2022/03/30 12:18:52;;;;;;;34.40;14.67;;;12.80;82.80;;;;;;5022110;28;20436;-78
2022/03/30 12:21:21;;;;;;;31.73;15.57;;;12.70;82.10;;;;;;5009529;28;20866;-77
2022/03/30 12:24:09;;;;;;;38.23;16.60;;;12.60;82.40;;;;;;5017381;28;20495;-77
2022/03/30 12:26:36;;;;;;;31.47;14.43;;;12.70;82.80;;;;;;5025281;28;20440;-76
2022/03/30 12:29:14;;;;;;;38.93;15.77;;;12.60;82.10;;;;;;5021147;28;20430;-76
2022/03/30 12:31:59;;;;;;;31.13;14.70;;;12.60;82.50;;;;;;5026516;28;20476;-76
2022/03/30 12:34:29;;;;;;;32.80;16.03;;;12.60;83.70;;;;;;5037846;28;20668;-77
2022/03/30 12:36:58;;;;;;;28.07;15.40;;;12.50;83.00;;;;;;5022680;28;20464;-77
2022/03/30 12:39:29;;;;;;;27.17;14.13;;;12.50;83.60;;;;;;5031288;28;21006;-78
2022/03/30 12:42:02;;;;;;;22.97;10.97;;;12.40;85.00;;;;;;5013312;28;20492;-77
2022/03/30 12:44:30;;;;;;;14.67;8.70;;;11.80;87.40;;;;;;5030554;28;20512;-76
2022/03/30 12:46:58;;;;;;;25.53;10.43;;;11.30;89.50;;;;;;5014265;28;20437;-76